航空気象通報

ウインドサーファーのための航空気象通報による風予報です。

3/31-4/2の航空気象通報

2018年03月31日 22時40分43秒 | TAF
羽田空港
TAF RJTT 311105Z 3112/0118 21010KT 9999 FEW020
BECMG 3119/3121 26004KT
BECMG 3121/3123 20010KT
BECMG 0103/0106 20021KT
TEMPO 0103/0109 20023G33KT
BECMG 0115/0118 23008KT
日本時間31日21時-1日04時:210度から10ノットの風
04-06時:風が変化
06時:260度から4ノットの風
06-08時:風が変化
08-12時:200度から10ノットの風
12-15時:風が変化
15-24時:200度から21ノットの風
但し、12-18時の間:時々200度から23ノット、突風33ノット
2日00-03時:風が変化
03時:230度から8ノットの風


静岡空港
TAF RJNS 311105Z 3112/0118 28010KT 9999 FEW020 SCT030
BECMG 0103/0106 22014KT
日本時間31日21時-1日12時:280度から10ノットの風
12-15時:風が変化
15時-2日03時:220度から14ノットの風


福岡空港
TAF RJFF 311106Z 3112/0118 15006KT 9999 FEW030
BECMG 0100/0103 31010KT
BECMG 0109/0112 15005KT
日本時間31日21時-1日09時:150度から6ノットの風
09-12時:風が変化
12-18時:310度から10ノットの風
18-21時:風が変化
21時-2日03時:150度から5ノットの風


那覇空港
TAF ROAH 311105Z 3112/0118 08007KT 9999 FEW030 SCT045
BECMG 0109/0112 10007KT
日本時間31日21時-1日18時:080度から7ノットの風
18-21時:風が変化
21時-2日03時:100度から7ノットの風


石垣空港
TAF ROIG 311107Z 3112/0118 08013KT 9999 FEW030 SCT045
日本時間31日21時-2日03時:080度から13ノットの風


マウイのカフルイ空港
PHOG 311143Z 3112/0112 VRB04KT P6SM FEW130
FM312200 02010KT P6SM FEW035 SCT050 BKN130
FM010600 VRB04KT P6SM FEW025 SCT040 BKN090 AMD LTD TO VIS AND WIND TIL 311600
ハワイ時間31日02-12時:風向不定4ノットの風

12-20時:020度から10ノットの風
20時-1日02時:風向不定4ノットの風


サイパン空港
PGSN 311138Z 3112/0112 20010KT P6SM VCSH SCT020 BKN150
FM312300 22014G20KT P6SM VCSH FEW020 SCT050 BKN150
マリアナ時間31日22時-1日09時:200度から10ノットの風
09-22時:220度から14ノット、突風20ノット

コメント

3/30-4/1の航空気象通報

2018年03月31日 00時24分27秒 | TAF
羽田空港
TAF RJTT 301105Z 3012/3118 09010KT 9999 FEW030
BECMG 3014/3016 04010KT
BECMG 3100/3103 08006KT
BECMG 3103/3106 19014KT
日本時間30日21-23時:090度から10ノットの風
23時-31日01時:風が変化
01-09時:040度から10ノットの風
09-12時:風が変化
12時:080度から6ノットの風
12-15時:風が変化
15時-1日03時:190度から14ノットの風


静岡空港
TAF RJNS 301106Z 3012/3118 12006KT 9999 FEW025 BKN040
BECMG 3013/3015 36006KT
BECMG 3022/3100 16008KT
BECMG 3109/3112 28010KT
日本時間30日21-22時:120度から6ノットの風
22-24時:風が変化
31日00-07時:360度から6ノットの風
07-09時:風が変化
09-18時:160度から8ノットの風
18-21時:風が変化
21時-1日03時:280度から10ノットの風


福岡空港
TAF RJFF 301108Z 3012/3118 01005KT 9999 FEW030
BECMG 3014/3016 14004KT
BECMG 3100/3103 32011KT
BECMG 3109/3112 15005KT
日本時間30日21-23時:010度から5ノットの風
23時-31日01時:風が変化
01-09時:140度から4ノットの風
09-12時:風が変化
12-18時:320度から11ノットの風
18-21時:風が変化
21時-1日03時:150度から5ノットの風


那覇空港
TAF ROAH 301106Z 3012/3118 07010KT 9999 FEW035
日本時間30日21時-1日03時:070度から10ノットの風


石垣空港
TAF ROIG 301109Z 3012/3118 06014KT 9999 FEW030 SCT045
日本時間30日21時-1日03時:060度から14ノットの風


マウイのカフルイ空港
PHOG 301127Z 3012/3112 15005KT P6SM FEW025 SCT060
FM302000 35010KT P6SM FEW025 SCT050
FM310500 13005KT P6SM FEW025 SCT060 AMD LTD TO VIS AND WIND TIL 301600
ハワイ時間30日02-10時:150度から5ノットの風
10-19時:350度から10ノットの風
19時-31日02時:130度から5ノットの風


サイパン空港
PGSN 301132Z 3012/3112 15010KT P6SM SCT026 SCT060 BKN110
マリアナ時間30日22時-1日22時:150度から10ノットの風

コメント

3/28-3/30の航空気象通報

2018年03月28日 23時34分10秒 | TAF
羽田空港
TAF RJTT 281106Z 2812/2918 21008KT 6000 FEW010
BECMG 2814/2816 32006KT
TEMPO 2818/2900 4000 BR
BECMG 2900/2903 11006KT
BECMG 2903/2906 17012KT
BECMG 2909/2912 35016KT
日本時間28日21-23時:210度から8ノットの風
23時-29日01時:風が変化
01-09時:320度から6ノットの風
09-12時:風が変化
12時:110度から6ノットの風
12-15時:風が変化
15-18時:170度から12ノットの風
18-21時:風が変化
21時-30日03時:350度から16ノットの風


静岡空港
TAF RJNS 281105Z 2812/2918 26010KT 9999 FEW015
TEMPO 2903/2909 24020G30KT
日本時間28日21時-30日03時:260度から10ノットの風
但し、29日12-18時の間:時々240度から20ノット、突風30ノット


福岡空港
TAF RJFF 281106Z 2812/2918 35004KT 9999 FEW040
BECMG 2812/2814 13005KT
BECMG 2900/2903 31008KT
日本時間28日21時:350度から4ノットの風
21-23時:風が変化
23時-29日09時:130度から5ノットの風
09-12時:風が変化
12時-30日03時:310度から8ノットの風


那覇空港
TAF ROAH 281107Z 2812/2918 07006KT 9999 FEW015 SCT030
日本時間28日21時-30日03時:070度から6ノットの風


石垣空港
TAF ROIG 281109Z 2812/2918 07010KT 9999 FEW020 SCT040
日本時間28日21時-30日03時:070度から10ノットの風


マウイのカフルイ空港
PHOG 281120Z 2812/2912 14004KT P6SM FEW030 FEW050
FM281800 20011KT P6SM FEW030 SCT050
FM282200 20017G24KT P6SM FEW035 SCT060
FM290400 VRB06KT P6SM FEW035 SCT050 AMD LTD TO VIS AND WIND TIL 281600
ハワイ時間28日02-08時:140度から4ノットの風
08-12時:200度から11ノットの風
12-18時:200度から17ノット、突風24ノット
18時-29日02時:風向不定6ノットの風


サイパン空港
PGSN 281120Z 2812/2912 11010KT P6SM SCT025
マリアナ時間28日22時-29日22時:110度から10ノットの風

コメント

3/27-3/29の航空気象通報

2018年03月27日 22時34分24秒 | TAF
羽田空港
TAF RJTT 271107Z 2712/2818 22010KT 9000 FEW020 SCT050
BECMG 2714/2716 25006KT
BECMG 2800/2803 12006KT
BECMG 2803/2806 18013KT
BECMG 2812/2815 33006KT
日本時間27日21-23時:220度から10ノットの風
23時-28日01時:風が変化
01-09時:250度から6ノットの風
09-12時:風が変化
12時:120度から6ノットの風
12-15時:風が変化
15-21時:180度から13ノットの風
21-24時:風が変化
29日00-03時:330度から6ノットの風


静岡空港
TAF RJNS 271105Z 2712/2818 28010KT 9999 SCT010
TEMPO 2714/2717 FEW005 BKN008
TEMPO 2803/2809 24018G28KT
日本時間27日21時-29日03時:280度から10ノットの風
但し、28日12-18時の間:時々240度から18ノット、突風28ノット

但し、27日23時-28日02時の間:時々

福岡空港
TAF RJFF 271112Z 2712/2818 15005KT 9000 FEW035
BECMG 2800/2803 32008KT
BECMG 2812/2815 15005KT
日本時間27日21時-28日09時:150度から5ノットの風
09-12時:風が変化
12-21時:320度から8ノットの風
21-24時:風が変化
27日00-03時:150度から5ノットの風


那覇空港
TAF ROAH 271105Z 2712/2818 08005KT 9999 FEW030 SCT040
日本時間27日21時-29日03時:080度から5ノットの風


石垣空港
TAF ROIG 271108Z 2712/2818 08008KT 9999 FEW030
日本時間27日21時-29日03時:080度から8ノットの風


マウイのカフルイ空港
PHOG 271120Z 2712/2812 20005KT P6SM FEW035 SCT060
FM272100 20018G25KT P6SM FEW035 SCT060
FM280400 20012KT P6SM FEW035 SCT060
FM280800 18007KT P6SM FEW025 SCT060
ハワイ時間27日02-11時:200度から5ノットの風
11-18時:200度から18ノット、突風25ノット
18-22時:200度から12ノットの風
22時-28日02時:180度から7ノットの風


サイパン空港
PGSN 271122Z 2712/2812 10015KT P6SM SCT029
マリアナ時間27日22時-28日22時:100度から15ノットの風

コメント

3/25-3/27の航空気象通報

2018年03月25日 22時28分33秒 | TAF
羽田空港
TAF RJTT 251105Z 2512/2618 17010KT 9999 FEW020
BECMG 2514/2516 36006KT
BECMG 2600/2603 18014KT
BECMG 2612/2615 01006KT
日本時間25日21-23時:170度から10ノットの風
23時-26日01時:風が変化
01-09時:360度から6ノットの風
09-12時:風が変化
12-21時:180度から14ノットの風
21-24時:風が変化
27日00-03時:010度から6ノットの風


静岡空港
TAF RJNS 251106Z 2512/2618 27010KT 9999 FEW030
TEMPO 2603/2609 24018G28KT
日本時間25日21時-27日03時:270度から10ノットの風
但し、26日12-18時の間:時々240度から18ノット、突風28ノット


福岡空港
TAF RJFF 251105Z 2512/2618 28003KT 6000 FEW040
BECMG 2512/2514 16005KT
BECMG 2600/2603 32008KT
BECMG 2612/2615 15005KT
日本時間25日21時:280度から3ノットの風
21-23時:風が変化
23時-26日09時:160度から5ノットの風
09-12時:風が変化
12-21時:320度から8ノットの風
21-24時:風が変化
27日00-03時:150度から5ノットの風


那覇空港
TAF ROAH 251106Z 2512/2618 07006KT 9999 FEW030 SCT045
BECMG 2520/2522 10008KT
BECMG 2606/2609 08006KT
日本時間25日21時-26日05時:070度から6ノットの風
05-07時:風が変化
07-15時:100度から8ノットの風
15-18時:風が変化
18時-27日03時:080度から6ノットの風


石垣空港
TAF ROIG 251108Z 2512/2618 09010KT 9999 SCT030 BKN045
日本時間25日21時-27日03時:090度から10ノットの風


マウイのカフルイ空港
PHOG 251138Z 2512/2612 18005KT P6SM FEW020 BKN250
FM252200 35009KT P6SM VCSH SCT025 BKN050
FM260500 18005KT P6SM VCSH SCT025 BKN050 AMD LTD TO VIS AND WIND TIL 251600
ハワイ時間25日02-12時:180度から5ノットの風
12-19時:350度から9ノットの風
19時-26日02時:180度から5ノットの風


サイパン空港
PGSN 251133Z 2512/2612 08014G22KT P6SM SCT025 SCT050
マリアナ時間25日22時-27日22時:080度から14ノット、突風22ノット
コメント